Terminal Aerodrome Forecast
Issued by NWS

Current Version | Previous Version | Graphics & Text | Print | Product List | Glossary On
Versions: 1 2 3 4 5 6 7 8 9 10 11 12 13 14 15 16 17 18 19 20 21 22 23 24 25 26
000
FTUS41 KRLX 200549
TAFCKB
TAF
KCKB 200549Z 2006/2106 27011G18KT P6SM OVC040
     FM200800 27008KT P6SM OVC040
     FM201100 25006KT P6SM SCT040
     FM201500 23007KT P6SM SKC
     FM210000 19003KT P6SM FEW250=

USA.gov is the U.S. government's official web portal to all federal, state and local government web resources and services.